Time;durP1;ratioP1;P1;durP2;ratioP2;P2;SDS_P1;SDS_P2;PMS_P1;PMS_P2;Temp;Humidity;BMP_temperature;BMP_pressure;BME280_temperature;BME280_humidity;BME280_pressure;Samples;Min_cycle;Max_cycle;Signal;HPM_P1;HPM_P2
2021/11/05 00:00:16;;;;;;;165.77;16.08;;;;;;;;;;5053664;28;20048;-45
2021/11/05 00:02:43;;;;;;;153.15;16.20;;;;;;;;;;5071708;28;20111;-47
2021/11/05 00:05:10;;;;;;;150.60;16.55;;;;;;;;;;5069178;28;20028;-48
2021/11/05 00:07:37;;;;;;;164.98;16.23;;;;;;;;;;5229966;22;20027;-46
2021/11/05 00:10:06;;;;;;;122.50;13.98;;;;;;;;;;5062286;28;20120;-49
2021/11/05 00:12:33;;;;;;;147.75;16.15;;;;;;;;;;5068760;28;20483;-48
2021/11/05 00:15:00;;;;;;;138.13;15.32;;;;;;;;;;5070242;28;20025;-50
2021/11/05 00:17:27;;;;;;;154.48;16.38;;;;;;;;;;5069753;28;20522;-47
2021/11/05 00:19:55;;;;;;;135.95;24.67;;;;;;;;;;5068858;28;20115;-51
2021/11/05 00:22:22;;;;;;;182.40;44.78;;;;;;;;;;5069066;28;20024;-50
2021/11/05 00:24:49;;;;;;;161.40;56.92;;;;;;;;;;5070026;28;20035;-50
2021/11/05 00:27:18;;;;;;;154.90;38.60;;;;;;;;;;5069882;28;20075;-50
2021/11/05 00:29:46;;;;;;;148.73;38.65;;;;;;;;;;5067639;28;20032;-46
2021/11/05 00:32:13;;;;;;;158.52;41.80;;;;;;;;;;5070262;28;20019;-50
2021/11/05 00:34:40;;;;;;;124.75;37.72;;;;;;;;;;5070151;28;20028;-47
2021/11/05 00:37:07;;;;;;;131.95;36.65;;;;;;;;;;5068099;28;20101;-48
2021/11/05 00:39:34;;;;;;;121.32;35.85;;;;;;;;;;5068133;28;20380;-50
2021/11/05 00:42:01;;;;;;;118.50;35.45;;;;;;;;;;5071776;28;20021;-51
2021/11/05 00:44:29;;;;;;;122.60;34.50;;;;;;;;;;5073593;28;20028;-52
2021/11/05 00:46:56;;;;;;;128.23;36.17;;;;;;;;;;5073822;28;20111;-51
2021/11/05 00:49:23;;;;;;;119.20;34.63;;;;;;;;;;5072788;28;20051;-49
2021/11/05 00:51:50;;;;;;;132.15;37.00;;;;;;;;;;5069175;28;20083;-48
2021/11/05 00:54:17;;;;;;;110.72;34.90;;;;;;;;;;5062892;28;20020;-52
2021/11/05 00:56:44;;;;;;;154.18;36.05;;;;;;;;;;5062219;28;20078;-47
2021/11/05 00:59:11;;;;;;;126.63;35.45;;;;;;;;;;5068120;28;20021;-49
2021/11/05 01:01:39;;;;;;;127.63;33.92;;;;;;;;;;5065379;28;20379;-51
2021/11/05 01:04:06;;;;;;;108.20;32.67;;;;;;;;;;5067805;28;20418;-47
2021/11/05 01:06:33;;;;;;;114.25;32.08;;;;;;;;;;5070010;28;20035;-48
2021/11/05 01:09:00;;;;;;;94.85;29.58;;;;;;;;;;5040158;28;20069;-46
2021/11/05 01:11:27;;;;;;;96.75;30.00;;;;;;;;;;5037801;28;20030;-49
2021/11/05 01:13:55;;;;;;;90.38;28.27;;;;;;;;;;5041544;28;20052;-48
2021/11/05 01:16:22;;;;;;;94.43;28.15;;;;;;;;;;5042533;28;20021;-48
2021/11/05 01:18:49;;;;;;;90.43;29.15;;;;;;;;;;5048109;28;20024;-49
2021/11/05 01:21:17;;;;;;;95.20;29.83;;;;;;;;;;5044480;28;20102;-51
2021/11/05 01:23:44;;;;;;;96.55;29.92;;;;;;;;;;5051111;28;20033;-49
2021/11/05 01:26:11;;;;;;;92.30;27.90;;;;;;;;;;5038466;28;20073;-51
2021/11/05 01:28:38;;;;;;;87.72;29.67;;;;;;;;;;5043969;28;20042;-50
2021/11/05 01:31:05;;;;;;;85.32;29.30;;;;;;;;;;5036705;28;20422;-49
2021/11/05 01:33:32;;;;;;;88.18;28.38;;;;;;;;;;5038320;28;20558;-48
2021/11/05 01:36:00;;;;;;;83.90;27.80;;;;;;;;;;5045331;28;20104;-48
2021/11/05 01:38:26;;;;;;;76.82;26.38;;;;;;;;;;5039703;28;20457;-48
2021/11/05 01:40:53;;;;;;;82.10;27.80;;;;;;;;;;5044776;28;20036;-50
2021/11/05 01:43:21;;;;;;;83.47;26.90;;;;;;;;;;5061885;28;20434;-47
2021/11/05 01:45:48;;;;;;;77.55;25.25;;;;;;;;;;5039469;28;20022;-46
2021/11/05 01:48:16;;;;;;;66.57;24.88;;;;;;;;;;5037455;28;20071;-52
2021/11/05 01:50:43;;;;;;;78.88;26.77;;;;;;;;;;5034251;28;20025;-50
2021/11/05 01:53:10;;;;;;;63.53;24.80;;;;;;;;;;5035088;28;20024;-50
2021/11/05 01:55:43;;;;;;;68.88;24.27;;;;;;;;;;5034938;28;20030;-49
2021/11/05 01:58:11;;;;;;;69.80;21.40;;;;;;;;;;5033143;28;20029;-48
2021/11/05 02:00:39;;;;;;;64.63;23.40;;;;;;;;;;5022514;28;20092;-47
2021/11/05 02:03:06;;;;;;;61.15;22.25;;;;;;;;;;5030385;28;20120;-46
2021/11/05 02:05:33;;;;;;;61.53;22.27;;;;;;;;;;5032038;28;20045;-52
2021/11/05 02:08:02;;;;;;;64.88;21.10;;;;;;;;;;5033648;28;20041;-52
2021/11/05 02:10:30;;;;;;;56.80;21.10;;;;;;;;;;5034134;28;20025;-47
2021/11/05 02:12:58;;;;;;;56.22;20.88;;;;;;;;;;5034579;28;20026;-49
2021/11/05 02:15:25;;;;;;;48.38;18.55;;;;;;;;;;5032710;28;20025;-47
2021/11/05 02:17:52;;;;;;;54.10;19.80;;;;;;;;;;5033743;28;20062;-51
2021/11/05 02:20:21;;;;;;;55.75;19.33;;;;;;;;;;5032505;28;20115;-51
2021/11/05 02:22:50;;;;;;;55.08;18.75;;;;;;;;;;5032291;28;20013;-49
2021/11/05 02:25:18;;;;;;;54.67;19.52;;;;;;;;;;5033913;28;20021;-52
2021/11/05 02:27:46;;;;;;;51.20;17.92;;;;;;;;;;5032955;28;20046;-46
2021/11/05 02:30:13;;;;;;;52.88;17.73;;;;;;;;;;5045314;28;20017;-55
2021/11/05 02:32:42;;;;;;;49.22;18.10;;;;;;;;;;5052564;28;20035;-55
2021/11/05 02:35:10;;;;;;;46.17;17.08;;;;;;;;;;5052415;28;20029;-54
2021/11/05 02:37:37;;;;;;;46.17;15.68;;;;;;;;;;5051030;28;20068;-48
2021/11/05 02:40:04;;;;;;;40.38;15.40;;;;;;;;;;5051994;28;20092;-54
2021/11/05 02:42:31;;;;;;;38.65;15.50;;;;;;;;;;5052504;28;20029;-50
2021/11/05 02:44:58;;;;;;;44.20;15.55;;;;;;;;;;5052132;28;20362;-53
2021/11/05 02:47:26;;;;;;;40.83;15.73;;;;;;;;;;5048642;28;20100;-51
2021/11/05 02:49:54;;;;;;;47.30;15.38;;;;;;;;;;5052300;28;20021;-50
2021/11/05 02:52:22;;;;;;;43.30;14.80;;;;;;;;;;5047812;28;20096;-52
2021/11/05 02:54:49;;;;;;;43.15;13.90;;;;;;;;;;5049099;28;20067;-54
2021/11/05 02:57:16;;;;;;;45.55;15.95;;;;;;;;;;5051699;28;20435;-50
2021/11/05 02:59:43;;;;;;;31.48;13.70;;;;;;;;;;5052284;28;20090;-53
2021/11/05 03:02:10;;;;;;;40.45;13.60;;;;;;;;;;5051812;28;20128;-52
2021/11/05 03:04:38;;;;;;;34.65;14.88;;;;;;;;;;5051174;28;20048;-53
2021/11/05 03:07:08;;;;;;;35.60;13.07;;;;;;;;;;5051861;28;20060;-55
2021/11/05 03:09:37;;;;;;;30.83;12.95;;;;;;;;;;5051791;28;20037;-55
2021/11/05 03:12:07;;;;;;;31.92;12.93;;;;;;;;;;5047236;28;20087;-55
2021/11/05 03:14:35;;;;;;;35.25;13.10;;;;;;;;;;5031519;28;20018;-55
2021/11/05 03:17:02;;;;;;;31.75;12.63;;;;;;;;;;5031793;28;20025;-56
2021/11/05 03:19:29;;;;;;;28.08;12.00;;;;;;;;;;5032549;28;20108;-55
2021/11/05 03:21:57;;;;;;;31.70;12.38;;;;;;;;;;5032613;28;20022;-55
2021/11/05 03:24:24;;;;;;;30.88;12.80;;;;;;;;;;5028863;28;20029;-52
2021/11/05 03:26:52;;;;;;;30.35;13.07;;;;;;;;;;5043791;28;20029;-49
2021/11/05 03:29:19;;;;;;;25.52;11.30;;;;;;;;;;5052038;28;20104;-52
2021/11/05 03:31:46;;;;;;;32.25;12.02;;;;;;;;;;5051294;28;20480;-52
2021/11/05 03:34:13;;;;;;;26.27;11.00;;;;;;;;;;5051842;28;20055;-55
2021/11/05 03:36:40;;;;;;;26.60;11.13;;;;;;;;;;5052065;28;20033;-53
2021/11/05 03:39:07;;;;;;;26.33;10.73;;;;;;;;;;5051554;28;20480;-54
2021/11/05 03:41:35;;;;;;;25.08;11.57;;;;;;;;;;5051500;28;20048;-52
2021/11/05 03:44:02;;;;;;;29.77;11.00;;;;;;;;;;5051560;28;20028;-52
2021/11/05 03:46:31;;;;;;;24.13;11.10;;;;;;;;;;5051592;28;20052;-51
2021/11/05 03:48:58;;;;;;;24.42;9.95;;;;;;;;;;5051264;28;20033;-53
2021/11/05 03:51:25;;;;;;;25.13;11.52;;;;;;;;;;5051489;28;20075;-55
2021/11/05 03:53:52;;;;;;;23.98;10.18;;;;;;;;;;5051185;28;20476;-50
2021/11/05 03:56:19;;;;;;;25.85;9.63;;;;;;;;;;5051552;28;20049;-52
2021/11/05 03:58:46;;;;;;;27.58;10.25;;;;;;;;;;5051134;28;20365;-52
2021/11/05 04:01:13;;;;;;;22.27;9.52;;;;;;;;;;5051543;28;20032;-54
2021/11/05 04:03:40;;;;;;;20.45;9.48;;;;;;;;;;5051052;28;20025;-55
2021/11/05 04:06:07;;;;;;;22.42;9.30;;;;;;;;;;5051412;28;20021;-52
2021/11/05 04:08:34;;;;;;;20.63;9.00;;;;;;;;;;5050764;28;20524;-54
2021/11/05 04:11:01;;;;;;;22.48;9.65;;;;;;;;;;5050084;28;20392;-55
2021/11/05 04:13:28;;;;;;;18.67;8.18;;;;;;;;;;5051558;28;20053;-55
2021/11/05 04:15:55;;;;;;;19.67;8.48;;;;;;;;;;5053180;28;20025;-51
2021/11/05 04:18:22;;;;;;;17.73;8.50;;;;;;;;;;5055412;28;20033;-53
2021/11/05 04:20:49;;;;;;;24.95;8.57;;;;;;;;;;5054946;28;20024;-54
2021/11/05 04:23:17;;;;;;;16.83;8.10;;;;;;;;;;5055561;28;20376;-53
2021/11/05 04:25:45;;;;;;;17.60;7.55;;;;;;;;;;5055004;28;20497;-53
2021/11/05 04:28:13;;;;;;;21.83;8.18;;;;;;;;;;5055553;28;20029;-55
2021/11/05 04:30:40;;;;;;;20.42;7.78;;;;;;;;;;5054644;28;20013;-53
2021/11/05 04:33:07;;;;;;;20.23;8.23;;;;;;;;;;5055281;28;20060;-53
2021/11/05 04:35:34;;;;;;;17.50;7.32;;;;;;;;;;5054782;28;20053;-50
2021/11/05 04:38:02;;;;;;;16.50;7.18;;;;;;;;;;5055204;28;20029;-53
2021/11/05 04:40:29;;;;;;;18.52;7.47;;;;;;;;;;5054659;28;20096;-54
2021/11/05 04:42:56;;;;;;;17.85;7.63;;;;;;;;;;5055062;28;20032;-48
2021/11/05 04:45:23;;;;;;;13.45;6.72;;;;;;;;;;5054412;28;20090;-51
2021/11/05 04:47:51;;;;;;;16.33;6.65;;;;;;;;;;5055056;28;20032;-51
2021/11/05 04:50:18;;;;;;;16.92;6.97;;;;;;;;;;5055269;28;20461;-50
2021/11/05 04:52:48;;;;;;;16.80;7.05;;;;;;;;;;5054331;28;20055;-51
2021/11/05 04:55:17;;;;;;;16.10;6.90;;;;;;;;;;5054996;28;20028;-52
2021/11/05 04:57:45;;;;;;;16.58;6.45;;;;;;;;;;5054135;28;20096;-52
2021/11/05 05:00:13;;;;;;;15.52;6.70;;;;;;;;;;5054776;28;20048;-51
2021/11/05 05:02:40;;;;;;;15.25;6.97;;;;;;;;;;5054057;28;20021;-51
2021/11/05 05:05:07;;;;;;;14.15;5.50;;;;;;;;;;5054805;28;20021;-51
2021/11/05 05:07:34;;;;;;;13.07;6.22;;;;;;;;;;5053728;28;20486;-50
2021/11/05 05:10:01;;;;;;;12.93;6.13;;;;;;;;;;5053456;28;20061;-53
2021/11/05 05:12:28;;;;;;;15.00;6.15;;;;;;;;;;5053922;28;20091;-55
2021/11/05 05:14:55;;;;;;;10.40;5.68;;;;;;;;;;5054537;28;20025;-49
2021/11/05 05:17:22;;;;;;;11.27;5.10;;;;;;;;;;5053764;28;20021;-46
2021/11/05 05:19:49;;;;;;;12.63;5.72;;;;;;;;;;5054620;28;20028;-51
2021/11/05 05:22:16;;;;;;;16.30;6.20;;;;;;;;;;5052551;28;20460;-55
2021/11/05 05:24:43;;;;;;;8.93;4.72;;;;;;;;;;5054518;28;20021;-52
2021/11/05 05:27:10;;;;;;;12.93;5.28;;;;;;;;;;5053011;28;20082;-50
2021/11/05 05:29:37;;;;;;;10.10;5.40;;;;;;;;;;5053981;28;20039;-49
2021/11/05 05:32:05;;;;;;;15.60;5.50;;;;;;;;;;5054126;28;20025;-53
2021/11/05 05:34:32;;;;;;;11.95;5.15;;;;;;;;;;5053801;28;20029;-50
2021/11/05 05:36:59;;;;;;;11.20;5.55;;;;;;;;;;5054312;28;20009;-51
2021/11/05 05:39:25;;;;;;;10.88;4.97;;;;;;;;;;5053452;28;20021;-53
2021/11/05 05:41:52;;;;;;;14.60;5.20;;;;;;;;;;5053938;28;20017;-53
2021/11/05 05:44:20;;;;;;;11.35;4.93;;;;;;;;;;5053578;28;20021;-54
2021/11/05 05:46:47;;;;;;;12.32;4.85;;;;;;;;;;5053927;28;20385;-53
2021/11/05 05:49:14;;;;;;;10.98;5.10;;;;;;;;;;5053228;28;20029;-55
2021/11/05 05:51:42;;;;;;;10.95;5.07;;;;;;;;;;5053997;28;20028;-51
2021/11/05 05:54:09;;;;;;;10.73;4.30;;;;;;;;;;5053393;28;20021;-53
2021/11/05 05:56:36;;;;;;;8.80;4.60;;;;;;;;;;5053897;28;20017;-51
2021/11/05 05:59:03;;;;;;;9.00;4.55;;;;;;;;;;5051783;28;20078;-46
2021/11/05 06:01:30;;;;;;;12.07;4.82;;;;;;;;;;5053821;28;20021;-53
2021/11/05 06:03:59;;;;;;;11.27;4.57;;;;;;;;;;5053015;28;20440;-55
2021/11/05 06:06:30;;;;;;;9.43;4.75;;;;;;;;;;5052442;28;20024;-48
2021/11/05 06:08:57;;;;;;;10.25;4.70;;;;;;;;;;5053139;28;20055;-51
2021/11/05 06:11:25;;;;;;;8.73;4.47;;;;;;;;;;5052831;28;20143;-49
2021/11/05 06:13:52;;;;;;;11.30;4.10;;;;;;;;;;5053335;28;20384;-49
2021/11/05 06:16:19;;;;;;;8.68;4.10;;;;;;;;;;5053115;28;20021;-48
2021/11/05 06:18:46;;;;;;;9.38;4.07;;;;;;;;;;5053438;28;20025;-53
2021/11/05 06:21:13;;;;;;;8.93;3.97;;;;;;;;;;5051695;28;20026;-50
2021/11/05 06:23:40;;;;;;;8.95;4.50;;;;;;;;;;5053341;28;20056;-49
2021/11/05 06:26:07;;;;;;;7.10;4.00;;;;;;;;;;5052742;28;20099;-53
2021/11/05 06:28:34;;;;;;;10.35;4.32;;;;;;;;;;5053141;28;20033;-54
2021/11/05 06:31:01;;;;;;;8.45;3.88;;;;;;;;;;5051585;28;20029;-49
2021/11/05 06:33:29;;;;;;;9.05;4.38;;;;;;;;;;5052833;28;20016;-51
2021/11/05 06:35:56;;;;;;;7.43;3.90;;;;;;;;;;5052626;28;20021;-50
2021/11/05 06:38:23;;;;;;;10.85;3.80;;;;;;;;;;5053075;28;20044;-52
2021/11/05 06:40:50;;;;;;;7.75;4.10;;;;;;;;;;5052491;28;20430;-49
2021/11/05 06:43:18;;;;;;;7.50;3.95;;;;;;;;;;5052490;28;20483;-48
2021/11/05 06:45:45;;;;;;;8.00;3.88;;;;;;;;;;5052898;28;20032;-54
2021/11/05 06:48:12;;;;;;;8.25;3.78;;;;;;;;;;5052230;28;20075;-48
2021/11/05 06:50:42;;;;;;;6.65;3.35;;;;;;;;;;5052971;28;20025;-51
2021/11/05 06:53:09;;;;;;;6.00;3.53;;;;;;;;;;5052041;28;20388;-47
2021/11/05 06:55:36;;;;;;;7.18;3.60;;;;;;;;;;5052347;28;20029;-50
2021/11/05 06:58:04;;;;;;;7.05;4.07;;;;;;;;;;5052290;28;20025;-49
2021/11/05 07:00:31;;;;;;;11.30;3.47;;;;;;;;;;5052513;28;20032;-49
2021/11/05 07:03:03;;;;;;;7.00;3.65;;;;;;;;;;5052284;28;20024;-51
2021/11/05 07:05:30;;;;;;;7.75;3.88;;;;;;;;;;5052518;28;20017;-55
2021/11/05 07:07:57;;;;;;;8.43;3.92;;;;;;;;;;5051660;28;20102;-53
2021/11/05 07:10:24;;;;;;;7.40;3.35;;;;;;;;;;5052383;28;20036;-52
2021/11/05 07:12:51;;;;;;;7.13;3.63;;;;;;;;;;5051993;28;20025;-51
2021/11/05 07:15:19;;;;;;;8.77;3.60;;;;;;;;;;5051941;28;20136;-52
2021/11/05 07:17:47;;;;;;;8.40;3.30;;;;;;;;;;5050366;28;20488;-53
2021/11/05 07:20:14;;;;;;;7.45;3.60;;;;;;;;;;5052258;28;20063;-51
2021/11/05 07:22:42;;;;;;;5.97;3.22;;;;;;;;;;5052334;28;20022;-53
2021/11/05 07:25:11;;;;;;;9.50;3.47;;;;;;;;;;5051507;28;20476;-54
2021/11/05 07:27:38;;;;;;;5.50;2.80;;;;;;;;;;5051982;28;20025;-54
2021/11/05 07:30:08;;;;;;;5.60;3.17;;;;;;;;;;5051710;28;20055;-52
2021/11/05 07:32:36;;;;;;;7.38;3.25;;;;;;;;;;5052323;28;20052;-48
2021/11/05 07:35:04;;;;;;;6.50;3.20;;;;;;;;;;5051428;28;20070;-52
2021/11/05 07:37:31;;;;;;;9.30;3.05;;;;;;;;;;5051516;28;20029;-53
2021/11/05 07:39:58;;;;;;;6.43;2.78;;;;;;;;;;5051544;28;20029;-55
2021/11/05 07:42:26;;;;;;;7.05;2.97;;;;;;;;;;5051897;28;20029;-54
2021/11/05 07:44:53;;;;;;;5.20;2.83;;;;;;;;;;5030878;28;20017;-52
2021/11/05 07:47:22;;;;;;;4.50;2.88;;;;;;;;;;5031669;28;20143;-54
2021/11/05 07:49:50;;;;;;;5.13;2.53;;;;;;;;;;5031071;28;20485;-53
2021/11/05 07:52:18;;;;;;;6.40;2.75;;;;;;;;;;5031848;28;20096;-50
2021/11/05 07:54:46;;;;;;;6.57;2.75;;;;;;;;;;5031113;28;20040;-52
2021/11/05 07:57:14;;;;;;;6.35;2.35;;;;;;;;;;5031854;28;20092;-53
2021/11/05 07:59:41;;;;;;;5.30;2.60;;;;;;;;;;5031237;28;20033;-51
2021/11/05 08:02:08;;;;;;;5.90;2.60;;;;;;;;;;5031679;28;20476;-53
2021/11/05 08:04:36;;;;;;;5.28;2.67;;;;;;;;;;5031273;28;20184;-50
2021/11/05 08:07:03;;;;;;;5.13;2.60;;;;;;;;;;5031117;28;20500;-55
2021/11/05 08:09:30;;;;;;;9.00;2.75;;;;;;;;;;5031318;28;20440;-50
2021/11/05 08:11:57;;;;;;;4.28;2.58;;;;;;;;;;5031036;28;20025;-52
2021/11/05 08:14:24;;;;;;;5.18;2.70;;;;;;;;;;5031377;28;20091;-52
2021/11/05 08:16:51;;;;;;;5.85;2.47;;;;;;;;;;5031034;28;20032;-53
2021/11/05 08:19:18;;;;;;;5.90;2.30;;;;;;;;;;5031819;28;20028;-51
2021/11/05 08:21:45;;;;;;;5.85;2.72;;;;;;;;;;5031066;28;20056;-51
2021/11/05 08:24:12;;;;;;;5.38;2.47;;;;;;;;;;5031655;28;20026;-48
2021/11/05 08:26:39;;;;;;;3.92;2.38;;;;;;;;;;5030023;28;20052;-52
2021/11/05 08:29:06;;;;;;;6.43;2.40;;;;;;;;;;5031378;28;20034;-53
2021/11/05 08:31:34;;;;;;;5.07;2.03;;;;;;;;;;5046232;28;20473;-49
2021/11/05 08:34:01;;;;;;;3.80;2.20;;;;;;;;;;5031592;28;20013;-54
2021/11/05 08:36:28;;;;;;;4.97;2.70;;;;;;;;;;5030726;28;20025;-50
2021/11/05 08:38:57;;;;;;;5.28;2.30;;;;;;;;;;5031468;28;20022;-54
2021/11/05 08:41:24;;;;;;;4.82;2.08;;;;;;;;;;5031178;28;20026;-51
2021/11/05 08:43:53;;;;;;;3.47;2.08;;;;;;;;;;5031235;28;20052;-54
2021/11/05 08:46:21;;;;;;;5.32;1.83;;;;;;;;;;5031205;28;20112;-55
2021/11/05 08:48:49;;;;;;;3.90;1.80;;;;;;;;;;5030622;28;20117;-51
2021/11/05 08:51:16;;;;;;;3.83;2.10;;;;;;;;;;5031273;28;20104;-53
2021/11/05 08:53:44;;;;;;;3.38;1.90;;;;;;;;;;5045984;28;20021;-49
2021/11/05 08:56:12;;;;;;;4.15;1.90;;;;;;;;;;5031053;28;20025;-52
2021/11/05 08:58:39;;;;;;;4.57;1.88;;;;;;;;;;5030945;28;20092;-52
2021/11/05 09:01:07;;;;;;;4.30;1.92;;;;;;;;;;5031211;28;20033;-52
2021/11/05 09:03:34;;;;;;;3.40;2.03;;;;;;;;;;5033587;28;20373;-52
2021/11/05 09:06:01;;;;;;;3.78;2.00;;;;;;;;;;5034656;28;20033;-52
2021/11/05 09:08:32;;;;;;;4.40;2.33;;;;;;;;;;5033991;28;20077;-53
2021/11/05 09:11:02;;;;;;;3.33;1.80;;;;;;;;;;5034768;28;20025;-54
2021/11/05 09:13:32;;;;;;;3.10;1.80;;;;;;;;;;5034299;28;20021;-51
2021/11/05 09:15:59;;;;;;;3.95;2.00;;;;;;;;;;5034455;28;20033;-54
2021/11/05 09:18:27;;;;;;;2.92;1.80;;;;;;;;;;5034052;28;20030;-51
2021/11/05 09:20:54;;;;;;;3.42;1.83;;;;;;;;;;5034652;28;20060;-53
2021/11/05 09:23:23;;;;;;;3.67;1.60;;;;;;;;;;5033942;28;20030;-50
2021/11/05 09:25:50;;;;;;;3.15;1.50;;;;;;;;;;5034161;28;20129;-51
2021/11/05 09:28:18;;;;;;;2.63;1.48;;;;;;;;;;5034469;28;20061;-47
2021/11/05 09:30:45;;;;;;;3.38;1.77;;;;;;;;;;5034177;28;20029;-55
2021/11/05 09:33:12;;;;;;;3.60;1.85;;;;;;;;;;5034151;28;20061;-50
2021/11/05 09:35:39;;;;;;;5.22;1.90;;;;;;;;;;5033709;28;20744;-49
2021/11/05 09:38:06;;;;;;;3.50;1.50;;;;;;;;;;5033991;28;20033;-45
2021/11/05 09:40:33;;;;;;;2.70;1.65;;;;;;;;;;5033578;28;20018;-48
2021/11/05 09:43:00;;;;;;;2.78;1.58;;;;;;;;;;5033265;28;20033;-53
2021/11/05 09:45:31;;;;;;;2.63;1.63;;;;;;;;;;5033436;28;20116;-51
2021/11/05 09:47:59;;;;;;;5.32;1.70;;;;;;;;;;5033414;28;20040;-49
2021/11/05 09:50:26;;;;;;;3.67;1.70;;;;;;;;;;5033518;28;20101;-48
2021/11/05 09:52:53;;;;;;;3.40;1.90;;;;;;;;;;5033758;28;20021;-47
2021/11/05 09:55:21;;;;;;;5.10;1.80;;;;;;;;;;5033117;28;20448;-47
2021/11/05 09:57:48;;;;;;;2.90;1.48;;;;;;;;;;5033483;28;20551;-50
2021/11/05 10:00:18;;;;;;;2.95;1.70;;;;;;;;;;5033925;28;20025;-55
2021/11/05 10:02:46;;;;;;;3.78;1.75;;;;;;;;;;5033153;28;20025;-53
2021/11/05 10:05:13;;;;;;;2.35;1.33;;;;;;;;;;5033460;28;20112;-55
2021/11/05 10:07:47;;;;;;;2.97;1.33;;;;;;;;;;5033562;28;20033;-54
2021/11/05 10:10:14;;;;;;;4.72;1.52;;;;;;;;;;5034118;28;20076;-52
2021/11/05 10:12:52;;;;;;;2.50;1.63;;;;;;;;;;5033555;28;20509;-55
2021/11/05 10:15:20;;;;;;;2.55;1.42;;;;;;;;;;5033749;28;20829;-53
2021/11/05 10:17:47;;;;;;;3.03;1.50;;;;;;;;;;5033910;28;20010;-49
2021/11/05 10:20:14;;;;;;;2.53;1.58;;;;;;;;;;5032612;28;20032;-53
2021/11/05 10:22:51;;;;;;;2.75;1.40;;;;;;;;;;5033550;28;20014;-54
2021/11/05 10:25:23;;;;;;;4.28;1.73;;;;;;;;;;5033558;28;20100;-51
2021/11/05 10:28:05;;;;;;;3.08;1.23;;;;;;;;;;5033601;28;20040;-54
2021/11/05 10:30:33;;;;;;;3.70;1.40;;;;;;;;;;5033915;28;20029;-50
2021/11/05 10:33:02;;;;;;;2.88;1.13;;;;;;;;;;5033824;28;20416;-50
2021/11/05 10:35:29;;;;;;;2.97;1.58;;;;;;;;;;5038981;28;20028;-52
2021/11/05 10:38:00;;;;;;;1.60;1.30;;;;;;;;;;5052717;28;20021;-48
2021/11/05 10:40:38;;;;;;;3.17;1.70;;;;;;;;;;5052553;28;20025;-54
2021/11/05 10:43:06;;;;;;;4.82;1.70;;;;;;;;;;5052718;28;20025;-53
2021/11/05 10:45:33;;;;;;;5.07;1.30;;;;;;;;;;5052600;28;20013;-55
2021/11/05 10:48:02;;;;;;;6.30;1.23;;;;;;;;;;5052937;28;20041;-47
2021/11/05 10:50:49;;;;;;;6.95;1.50;;;;;;;;;;5053239;28;20123;-48
2021/11/05 10:53:19;;;;;;;6.55;1.48;;;;;;;;;;5053173;28;20028;-51
2021/11/05 10:55:51;;;;;;;4.20;1.55;;;;;;;;;;5053016;28;20045;-51
2021/11/05 10:58:20;;;;;;;5.43;1.60;;;;;;;;;;5051585;28;20029;-50
2021/11/05 11:00:49;;;;;;;3.08;1.30;;;;;;;;;;5052964;28;20052;-50
2021/11/05 11:03:30;;;;;;;6.85;1.40;;;;;;;;;;5052788;28;20017;-54
2021/11/05 11:06:04;;;;;;;2.97;1.40;;;;;;;;;;5052868;28;20056;-59
2021/11/05 11:08:34;;;;;;;1.73;1.30;;;;;;;;;;5052242;28;20059;-55
2021/11/05 11:11:14;;;;;;;4.40;1.58;;;;;;;;;;5051314;28;20025;-54
2021/11/05 11:13:42;;;;;;;23.52;1.52;;;;;;;;;;5049064;28;20063;-53
2021/11/05 11:16:10;;;;;;;5.47;0.90;;;;;;;;;;5051291;28;20485;-44
2021/11/05 11:18:58;;;;;;;8.98;1.55;;;;;;;;;;5051827;28;20128;-45
2021/11/05 11:21:26;;;;;;;24.20;2.33;;;;;;;;;;5050451;28;20021;-48
2021/11/05 11:23:54;;;;;;;184.18;13.40;;;;;;;;;;5048601;28;20017;-50
2021/11/05 11:26:21;;;;;;;7.20;1.30;;;;;;;;;;5051252;28;20021;-52
2021/11/05 11:28:48;;;;;;;14.18;2.45;;;;;;;;;;5048805;28;20489;-49
2021/11/05 11:31:17;;;;;;;18.30;2.47;;;;;;;;;;5051927;28;20056;-59
2021/11/05 11:33:44;;;;;;;22.10;2.42;;;;;;;;;;5051841;28;20096;-49
2021/11/05 11:36:12;;;;;;;13.18;1.60;;;;;;;;;;5051179;28;20009;-48
2021/11/05 11:38:39;;;;;;;5.78;0.98;;;;;;;;;;5052057;28;20358;-52
2021/11/05 11:41:10;;;;;;;3.80;1.10;;;;;;;;;;5050926;28;20019;-47
2021/11/05 11:43:38;;;;;;;5.90;0.80;;;;;;;;;;5042972;28;20048;-49
2021/11/05 11:46:05;;;;;;;9.73;1.27;;;;;;;;;;5049145;28;20056;-45
2021/11/05 11:48:42;;;;;;;5.32;0.80;;;;;;;;;;5048337;28;20029;-48
2021/11/05 11:51:26;;;;;;;5.40;1.05;;;;;;;;;;5047476;28;20025;-46
2021/11/05 11:53:55;;;;;;;10.13;1.13;;;;;;;;;;5050500;28;20033;-56
2021/11/05 11:56:26;;;;;;;8.43;1.33;;;;;;;;;;5050432;28;20013;-54
2021/11/05 11:59:00;;;;;;;11.65;1.27;;;;;;;;;;5050081;28;20099;-57
2021/11/05 12:01:32;;;;;;;6.78;1.17;;;;;;;;;;5051545;28;20017;-56
2021/11/05 12:04:10;;;;;;;9.68;1.25;;;;;;;;;;5051067;28;20529;-65
2021/11/05 12:06:53;;;;;;;21.65;2.38;;;;;;;;;;5051525;28;20041;-56
2021/11/05 12:09:19;;;;;;;;;;;;;;;;;;5050556;28;20049;-58
2021/11/05 12:11:46;;;;;;;15.35;1.98;;;;;;;;;;5051591;28;19905;-58
2021/11/05 12:14:15;;;;;;;13.40;1.88;;;;;;;;;;5032459;28;20036;-52
2021/11/05 12:16:59;;;;;;;16.50;2.00;;;;;;;;;;5031316;28;20029;-58
2021/11/05 12:19:44;;;;;;;14.20;1.70;;;;;;;;;;5030397;28;20024;-58
2021/11/05 12:22:16;;;;;;;15.93;1.70;;;;;;;;;;5036662;28;20074;-52
2021/11/05 12:24:44;;;;;;;15.17;1.97;;;;;;;;;;5050082;28;20057;-51
2021/11/05 12:27:14;;;;;;;6.45;1.60;;;;;;;;;;5050857;28;20287;-55
2021/11/05 12:29:41;;;;;;;18.50;2.05;;;;;;;;;;5049960;28;20032;-56
2021/11/05 12:32:22;;;;;;;10.13;1.88;;;;;;;;;;5050906;28;20404;-49
2021/11/05 12:34:50;;;;;;;16.40;1.73;;;;;;;;;;5038705;28;20477;-52
2021/11/05 12:37:37;;;;;;;11.25;1.92;;;;;;;;;;5033731;28;20056;-55
2021/11/05 12:40:22;;;;;;;14.95;1.48;;;;;;;;;;5034578;28;20044;-49
2021/11/05 12:42:53;;;;;;;15.73;1.90;;;;;;;;;;5034357;28;20036;-57
2021/11/05 12:45:21;;;;;;;7.57;1.33;;;;;;;;;;5035003;28;20045;-59
2021/11/05 12:47:49;;;;;;;5.45;1.35;;;;;;;;;;5039743;28;20033;-58
2021/11/05 12:50:20;;;;;;;5.20;1.10;;;;;;;;;;5054109;28;20535;-57
2021/11/05 12:52:54;;;;;;;17.50;1.70;;;;;;;;;;5053509;28;20471;-60
2021/11/05 12:55:24;;;;;;;16.10;2.08;;;;;;;;;;5054843;28;20013;-58
2021/11/05 12:57:54;;;;;;;12.98;1.58;;;;;;;;;;5054005;28;20005;-57
2021/11/05 13:00:25;;;;;;;19.40;1.67;;;;;;;;;;5054150;28;20032;-58
2021/11/05 13:02:56;;;;;;;13.90;1.95;;;;;;;;;;5052804;28;20005;-58
2021/11/05 13:05:23;;;;;;;14.10;1.58;;;;;;;;;;5053692;28;20515;-51
2021/11/05 13:07:54;;;;;;;12.05;1.25;;;;;;;;;;5054080;28;20080;-55
2021/11/05 13:10:26;;;;;;;12.93;1.10;;;;;;;;;;5054534;28;20065;-56
2021/11/05 13:12:53;;;;;;;10.85;1.42;;;;;;;;;;5054164;28;20116;-50
2021/11/05 13:15:21;;;;;;;17.33;1.83;;;;;;;;;;5054012;28;20025;-56
2021/11/05 13:17:49;;;;;;;17.42;1.60;;;;;;;;;;5053472;28;20135;-55
2021/11/05 13:20:24;;;;;;;16.30;2.10;;;;;;;;;;5053777;28;20017;-58
2021/11/05 13:22:53;;;;;;;14.10;1.83;;;;;;;;;;5054040;28;20029;-57
2021/11/05 13:25:22;;;;;;;25.17;2.47;;;;;;;;;;5053407;28;20415;-58
2021/11/05 13:28:06;;;;;;;29.02;2.38;;;;;;;;;;5052617;28;20033;-56
2021/11/05 13:30:36;;;;;;;13.13;1.67;;;;;;;;;;5053959;28;20032;-58
2021/11/05 13:33:04;;;;;;;20.65;2.08;;;;;;;;;;5054258;28;20104;-55
2021/11/05 13:35:32;;;;;;;10.82;1.63;;;;;;;;;;5053277;28;20029;-52
2021/11/05 13:38:06;;;;;;;20.70;2.20;;;;;;;;;;5053572;28;20021;-57
2021/11/05 13:40:34;;;;;;;37.83;3.03;;;;;;;;;;5052481;28;20085;-57
2021/11/05 13:43:13;;;;;;;21.88;2.50;;;;;;;;;;5053146;28;20017;-57
2021/11/05 13:45:48;;;;;;;27.08;2.55;;;;;;;;;;5051781;28;20033;-58
2021/11/05 13:48:23;;;;;;;19.02;2.15;;;;;;;;;;5052085;28;20033;-57
2021/11/05 13:50:51;;;;;;;28.00;1.92;;;;;;;;;;5048043;28;20021;-47
2021/11/05 13:53:20;;;;;;;36.67;2.03;;;;;;;;;;5050285;28;20025;-44
2021/11/05 13:55:48;;;;;;;29.05;2.85;;;;;;;;;;5052683;28;20445;-49
2021/11/05 13:58:24;;;;;;;20.33;2.40;;;;;;;;;;5052176;28;20064;-47
2021/11/05 14:00:51;;;;;;;28.67;2.20;;;;;;;;;;5053329;28;20041;-57
2021/11/05 14:03:19;;;;;;;23.42;1.60;;;;;;;;;;5053922;28;20075;-60
2021/11/05 14:05:48;;;;;;;30.55;2.17;;;;;;;;;;5053317;28;20055;-57
2021/11/05 14:08:15;;;;;;;24.10;2.28;;;;;;;;;;5046779;28;20374;-56
2021/11/05 14:10:50;;;;;;;10.15;1.45;;;;;;;;;;5034493;28;20017;-55
2021/11/05 14:13:17;;;;;;;15.52;1.63;;;;;;;;;;5052841;28;20477;-56
2021/11/05 14:15:45;;;;;;;17.17;1.60;;;;;;;;;;5053012;28;20033;-55
2021/11/05 14:18:16;;;;;;;20.10;1.60;;;;;;;;;;5052020;28;20021;-54
2021/11/05 14:20:44;;;;;;;9.17;1.00;;;;;;;;;;5053175;28;20036;-48
2021/11/05 14:23:43;;;;;;;10.57;1.65;;;;;;;;;;5052961;28;20071;-57
2021/11/05 14:26:19;;;;;;;10.38;1.02;;;;;;;;;;5040834;28;20040;-57
2021/11/05 14:28:46;;;;;;;15.05;1.33;;;;;;;;;;5051980;28;20091;-53
2021/11/05 14:31:13;;;;;;;18.42;2.03;;;;;;;;;;5051956;28;20029;-58
2021/11/05 14:33:40;;;;;;;17.13;1.20;;;;;;;;;;5051927;28;20036;-55
2021/11/05 14:36:27;;;;;;;13.07;1.25;;;;;;;;;;5052365;28;20070;-51
2021/11/05 14:38:55;;;;;;;11.43;1.02;;;;;;;;;;5052438;28;21137;-60